Ginger — 5IM827 — position and weather

sailwx.info

Track history (hours):
 
Tides and Currents Weather Stations Pressure Air Temp Water Temp Dewpoint Dewpoint Depression Visibility Wind Speed Wind Dir Waves Ship Positions

Ginger

Last reported at 2018-Jan-29 11:11 UTC. Time now 2018-Feb-23 08:35 UTC.
Position N 46°37' E 031°35'.
Warning: this ship's position is 24 days out of date.

Length 82 m; draft 3.8 m.

Type: Dredging. MMSI: 677072700.

Date/timePositionNaut miles runAvg speedWind from/ knotsBaromVisibWave heightAir tempDewpointWater temp
2018-Jan-29 11:11N 46°37' E 031°35'1 6.9
2018-Jan-29 10:58N 46°36' E 031°36'3 6.8
2018-Jan-29 10:29N 46°35' E 031°32'9 7.6
2018-Jan-29 09:21N 46°35' E 031°19'3 8.8
2018-Jan-29 09:00N 46°35' E 031°15'4 8.7
2018-Jan-29 08:30N 46°35' E 031°08'4 8.6
2018-Jan-29 08:00N 46°34' E 031°03'3 6.4
2018-Jan-29 07:30N 46°33' E 030°58'2 4.7
2018-Jan-29 07:00N 46°31' E 030°57'3 5.9
2018-Jan-29 06:30N 46°28' E 030°57'3 5.4
2018-Jan-29 05:59N 46°25' E 030°57'2 5.1
2018-Jan-29 05:30N 46°23' E 030°57'3 5.0
2018-Jan-29 05:00N 46°20' E 030°58'3 5.8
2018-Jan-29 04:30N 46°17' E 030°59'3 5.7
2018-Jan-29 04:00N 46°15' E 031°01'3 5.7
2018-Jan-29 03:30N 46°13' E 031°04'3 5.5
2018-Jan-29 03:00N 46°11' E 031°06'3 6.0
2018-Jan-29 02:30N 46°09' E 031°10'3 5.8
2018-Jan-29 01:59N 46°07' E 031°13'13 0.3
2018-Jan-27 03:53N 46°13' E 030°57'2 6.3
2018-Jan-27 03:30N 46°15' E 030°54'3 6.0
2018-Jan-27 03:00N 46°18' E 030°55'3 6.3
2018-Jan-27 02:30N 46°21' E 030°55'3 6.4
2018-Jan-27 02:00N 46°24' E 030°55'3 6.6
2018-Jan-27 01:30N 46°27' E 030°55'3 6.5
2018-Jan-27 01:01N 46°30' E 030°55'3 5.5
2018-Jan-27 00:30N 46°33' E 030°58'3 6.5
2018-Jan-27 00:00N 46°34' E 031°02'3 6.0
2018-Jan-26 23:30N 46°35' E 031°06'3 7.0
2018-Jan-26 23:00N 46°35' E 031°11'4 7.3
2018-Jan-26 22:30N 46°35' E 031°16'  
2018-Jan-24 16:21N 05°50' E 001°13'2 6.7
2018-Jan-24 16:01N 05°52' E 001°14'9 0.9
2018-Jan-24 06:25N 06°01' E 001°17'0 0.0
2018-Jan-24 00:58N 06°01' E 001°17'0 0.0
2018-Jan-24 00:25N 06°01' E 001°17'0 0.0
2018-Jan-23 23:49N 06°01' E 001°17'0 0.0
2018-Jan-23 23:25N 06°01' E 001°17'0 0.0
2018-Jan-23 22:22N 06°01' E 001°17'0 0.0
2018-Jan-23 21:07N 06°01' E 001°17'0 0.1
2018-Jan-23 20:55N 06°01' E 001°17'0 0.1
2018-Jan-23 20:25N 06°01' E 001°17'0 0.1
2018-Jan-23 19:58N 06°01' E 001°17'0 0.1
2018-Jan-23 19:25N 06°01' E 001°17'0 0.1
2018-Jan-23 18:58N 06°01' E 001°17'0 0.0
2018-Jan-23 18:28N 06°01' E 001°17'0 0.0
2018-Jan-23 17:55N 06°01' E 001°17'0 0.1
2018-Jan-23 17:25N 06°01' E 001°17'0 0.0
2018-Jan-23 16:10N 06°01' E 001°17'0 0.0
2018-Jan-23 16:01N 06°01' E 001°17'0 0.1
2018-Jan-23 15:31N 06°01' E 001°17'0 0.0
2018-Jan-23 07:39N 06°01' E 001°17'0 0.2
2018-Jan-23 07:27N 06°01' E 001°17'0 0.1
2018-Jan-23 07:00N 06°01' E 001°17'0 0.1
2018-Jan-23 06:30N 06°01' E 001°17'0 0.1
2018-Jan-23 05:57N 06°01' E 001°17'0 0.0
2018-Jan-23 05:27N 06°01' E 001°17'0 0.1
2018-Jan-23 05:00N 06°01' E 001°17'0 0.1
2018-Jan-23 04:30N 06°01' E 001°17'0 0.0
2018-Jan-23 04:00N 06°01' E 001°17'0 0.0
2018-Jan-23 03:30N 06°01' E 001°17'0 0.0
2018-Jan-23 03:00N 06°01' E 001°17'0 0.0
2018-Jan-23 02:30N 06°01' E 001°17'0 0.1
2018-Jan-23 02:00N 06°01' E 001°17'0 0.1
2018-Jan-23 01:30N 06°01' E 001°17'0 0.0
2018-Jan-23 01:00N 06°01' E 001°17'0 0.1
2018-Jan-23 00:18N 06°01' E 001°17'0 0.0
2018-Jan-23 00:00N 06°01' E 001°17'0 0.0
2018-Jan-22 23:30N 06°01' E 001°17'0 0.0
2018-Jan-22 23:00N 06°01' E 001°17'0 0.0
2018-Jan-22 22:30N 06°01' E 001°17'0 0.0
2018-Jan-22 22:00N 06°01' E 001°17'0 0.0
2018-Jan-22 21:30N 06°01' E 001°17'0 0.0
2018-Jan-22 21:00N 06°01' E 001°17'0 0.0
2018-Jan-22 20:30N 06°01' E 001°17'0 0.1
2018-Jan-22 20:00N 06°01' E 001°17'0 0.0
2018-Jan-22 19:24N 06°01' E 001°17'0 0.0
2018-Jan-22 19:00N 06°01' E 001°17'0 0.0
2018-Jan-22 18:30N 06°01' E 001°17'0 0.0
2018-Jan-22 18:00N 06°01' E 001°17'0 0.0
2018-Jan-22 17:30N 06°01' E 001°17'0 0.0
2018-Jan-22 17:00N 06°01' E 001°17'0 0.0
2018-Jan-22 16:30N 06°01' E 001°17'0 0.0
2018-Jan-22 16:00N 06°01' E 001°17'0 0.0
2018-Jan-22 05:27N 06°01' E 001°17'0 0.0
2018-Jan-22 04:08N 06°01' E 001°17'0 0.0
2018-Jan-22 03:59N 06°01' E 001°17'0 0.0
2018-Jan-22 03:29N 06°01' E 001°17'0 0.0
2018-Jan-22 02:59N 06°01' E 001°17'0 0.0
2018-Jan-22 02:26N 06°01' E 001°17'0 0.0
2018-Jan-22 01:56N 06°01' E 001°17'0 0.0
2018-Jan-22 01:29N 06°01' E 001°17'0 0.0
2018-Jan-22 00:59N 06°01' E 001°17'0 0.0
2018-Jan-22 00:26N 06°01' E 001°17'0 0.0
2018-Jan-21 23:59N 06°01' E 001°17'0 0.0
2018-Jan-21 23:29N 06°01' E 001°17'0 0.0
2018-Jan-21 22:59N 06°01' E 001°17'0 0.0
2018-Jan-21 22:29N 06°01' E 001°17'0 0.0
2018-Jan-21 21:59N 06°01' E 001°17'0 0.0
2018-Jan-21 21:29N 06°01' E 001°17'0 0.0
2018-Jan-21 20:59N 06°01' E 001°17'0 0.0
2018-Jan-21 20:29N 06°01' E 001°17'0 0.0
2018-Jan-21 19:59N 06°01' E 001°17'0 0.0
2018-Jan-21 19:29N 06°01' E 001°17'0 0.0
2018-Jan-21 18:59N 06°01' E 001°17'0 0.0
2018-Jan-21 18:29N 06°01' E 001°17'0 0.0
2018-Jan-21 17:59N 06°01' E 001°17'0 0.0
2018-Jan-21 17:29N 06°01' E 001°17'0 0.0
2018-Jan-21 16:59N 06°01' E 001°17'0 0.0
2018-Jan-21 16:29N 06°01' E 001°17'0 0.0
2018-Jan-21 15:56N 06°01' E 001°17'0 0.0
2018-Jan-21 15:29N 06°01' E 001°17'0 0.0
2018-Jan-21 07:26N 06°01' E 001°17'0 0.0
2018-Jan-21 05:14N 06°01' E 001°17'0 0.0
2018-Jan-21 03:35N 06°01' E 001°17'0 0.0
2018-Jan-21 03:29N 06°01' E 001°17'0 0.0
2018-Jan-21 02:59N 06°01' E 001°17'0 0.0
2018-Jan-21 02:17N 06°01' E 001°17'0 0.0
2018-Jan-21 01:59N 06°01' E 001°17'0 0.0
2018-Jan-21 01:26N 06°01' E 001°17'0 0.0
2018-Jan-21 00:50N 06°01' E 001°17'0 0.0
2018-Jan-21 00:26N 06°01' E 001°17'0 0.0
2018-Jan-20 23:59N 06°01' E 001°17'0 0.0
2018-Jan-20 23:26N 06°01' E 001°17'0 0.0
2018-Jan-20 22:59N 06°01' E 001°17'0 0.0
2018-Jan-20 22:29N 06°01' E 001°17'0 0.0
2018-Jan-20 21:59N 06°01' E 001°17'0 0.0
2018-Jan-20 21:23N 06°01' E 001°17'0 0.0
2018-Jan-20 20:53N 06°01' E 001°17'0 0.0
2018-Jan-20 19:47N 06°01' E 001°17'0 0.0
2018-Jan-20 19:23N 06°01' E 001°17'0 0.0
2018-Jan-20 18:59N 06°01' E 001°17'0 0.0
2018-Jan-20 18:29N 06°01' E 001°17'0 0.0
2018-Jan-20 17:59N 06°01' E 001°17'0 0.0
2018-Jan-20 17:28N 06°01' E 001°17'0 0.0
2018-Jan-20 16:58N 06°01' E 001°17'0 0.0
2018-Jan-20 16:01N 06°01' E 001°17'0 0.1
2018-Jan-20 15:58N 06°01' E 001°17'0 0.0
2018-Jan-20 15:28N 06°01' E 001°17'0 0.0
2018-Jan-20 14:58N 06°01' E 001°17'0 0.0
2018-Jan-20 14:28N 06°01' E 001°17'0 0.0
2018-Jan-20 01:01N 06°01' E 001°17'0 0.0
2018-Jan-20 00:34N 06°01' E 001°17'0 0.0
2018-Jan-20 00:16N 06°01' E 001°17'0 0.0
2018-Jan-19 23:55N 06°01' E 001°17'0 0.0
2018-Jan-19 23:28N 06°01' E 001°17'0 0.0
2018-Jan-19 22:58N 06°01' E 001°17'0 0.0
2018-Jan-19 22:28N 06°01' E 001°17'0 0.0
2018-Jan-19 21:58N 06°01' E 001°17'0 0.0
2018-Jan-19 21:28N 06°01' E 001°17'0 0.0
2018-Jan-19 20:58N 06°01' E 001°17'0 0.0
2018-Jan-19 20:28N 06°01' E 001°17'0 0.0
2018-Jan-19 19:58N 06°01' E 001°17'0 0.0
2018-Jan-19 19:28N 06°01' E 001°17'0 0.0
2018-Jan-19 18:58N 06°01' E 001°17'0 0.0
2018-Jan-19 18:28N 06°01' E 001°17'0 0.0
2018-Jan-19 17:58N 06°01' E 001°17'0 0.0
2018-Jan-19 17:28N 06°01' E 001°17'0 0.0
2018-Jan-19 16:58N 06°01' E 001°17'0 0.0
2018-Jan-19 16:28N 06°01' E 001°17'0 0.0
2018-Jan-19 15:52N 06°01' E 001°17'0 0.0
2018-Jan-19 15:25N 06°01' E 001°17'0 0.0
2018-Jan-19 14:58N 06°01' E 001°17'0 0.0
2018-Jan-19 14:28N 06°01' E 001°17'0 0.0
2018-Jan-19 13:58N 06°01' E 001°17'  
Track history (hours):
 
Tides and Currents Weather Stations Pressure Air Temp Water Temp Dewpoint Dewpoint Depression Visibility Wind Speed Wind Dir Waves Ship Positions

Ginger

Last reported at 2018-Jan-29 11:11 UTC. Time now 2018-Feb-23 08:35 UTC.
Position N 46°37' E 031°35'.
Warning: this ship's position is 24 days out of date.

Length 82 m; draft 3.8 m.

Type: Dredging. MMSI: 677072700.

Date/timePositionNaut miles runAvg speedWind from/ knotsBaromVisibWave heightAir tempDewpointWater temp
2018-Jan-29 11:11N 46°37' E 031°35'1 6.9
2018-Jan-29 10:58N 46°36' E 031°36'3 6.8
2018-Jan-29 10:29N 46°35' E 031°32'9 7.6
2018-Jan-29 09:21N 46°35' E 031°19'3 8.8
2018-Jan-29 09:00N 46°35' E 031°15'4 8.7
2018-Jan-29 08:30N 46°35' E 031°08'4 8.6
2018-Jan-29 08:00N 46°34' E 031°03'3 6.4
2018-Jan-29 07:30N 46°33' E 030°58'2 4.7
2018-Jan-29 07:00N 46°31' E 030°57'3 5.9
2018-Jan-29 06:30N 46°28' E 030°57'3 5.4
2018-Jan-29 05:59N 46°25' E 030°57'2 5.1
2018-Jan-29 05:30N 46°23' E 030°57'3 5.0
2018-Jan-29 05:00N 46°20' E 030°58'3 5.8
2018-Jan-29 04:30N 46°17' E 030°59'3 5.7
2018-Jan-29 04:00N 46°15' E 031°01'3 5.7
2018-Jan-29 03:30N 46°13' E 031°04'3 5.5
2018-Jan-29 03:00N 46°11' E 031°06'3 6.0
2018-Jan-29 02:30N 46°09' E 031°10'3 5.8
2018-Jan-29 01:59N 46°07' E 031°13'13 0.3
2018-Jan-27 03:53N 46°13' E 030°57'2 6.3
2018-Jan-27 03:30N 46°15' E 030°54'3 6.0
2018-Jan-27 03:00N 46°18' E 030°55'3 6.3
2018-Jan-27 02:30N 46°21' E 030°55'3 6.4
2018-Jan-27 02:00N 46°24' E 030°55'3 6.6
2018-Jan-27 01:30N 46°27' E 030°55'3 6.5
2018-Jan-27 01:01N 46°30' E 030°55'3 5.5
2018-Jan-27 00:30N 46°33' E 030°58'3 6.5
2018-Jan-27 00:00N 46°34' E 031°02'3 6.0
2018-Jan-26 23:30N 46°35' E 031°06'3 7.0
2018-Jan-26 23:00N 46°35' E 031°11'4 7.3
2018-Jan-26 22:30N 46°35' E 031°16'  
2018-Jan-24 16:21N 05°50' E 001°13'2 6.7
2018-Jan-24 16:01N 05°52' E 001°14'9 0.9
2018-Jan-24 06:25N 06°01' E 001°17'0 0.0
2018-Jan-24 00:58N 06°01' E 001°17'0 0.0
2018-Jan-24 00:25N 06°01' E 001°17'0 0.0
2018-Jan-23 23:49N 06°01' E 001°17'0 0.0
2018-Jan-23 23:25N 06°01' E 001°17'0 0.0
2018-Jan-23 22:22N 06°01' E 001°17'0 0.0
2018-Jan-23 21:07N 06°01' E 001°17'0 0.1
2018-Jan-23 20:55N 06°01' E 001°17'0 0.1
2018-Jan-23 20:25N 06°01' E 001°17'0 0.1
2018-Jan-23 19:58N 06°01' E 001°17'0 0.1
2018-Jan-23 19:25N 06°01' E 001°17'0 0.1
2018-Jan-23 18:58N 06°01' E 001°17'0 0.0
2018-Jan-23 18:28N 06°01' E 001°17'0 0.0
2018-Jan-23 17:55N 06°01' E 001°17'0 0.1
2018-Jan-23 17:25N 06°01' E 001°17'0 0.0
2018-Jan-23 16:10N 06°01' E 001°17'0 0.0
2018-Jan-23 16:01N 06°01' E 001°17'0 0.1
2018-Jan-23 15:31N 06°01' E 001°17'0 0.0
2018-Jan-23 07:39N 06°01' E 001°17'0 0.2
2018-Jan-23 07:27N 06°01' E 001°17'0 0.1
2018-Jan-23 07:00N 06°01' E 001°17'0 0.1
2018-Jan-23 06:30N 06°01' E 001°17'0 0.1
2018-Jan-23 05:57N 06°01' E 001°17'0 0.0
2018-Jan-23 05:27N 06°01' E 001°17'0 0.1
2018-Jan-23 05:00N 06°01' E 001°17'0 0.1
2018-Jan-23 04:30N 06°01' E 001°17'0 0.0
2018-Jan-23 04:00N 06°01' E 001°17'0 0.0
2018-Jan-23 03:30N 06°01' E 001°17'0 0.0
2018-Jan-23 03:00N 06°01' E 001°17'0 0.0
2018-Jan-23 02:30N 06°01' E 001°17'0 0.1
2018-Jan-23 02:00N 06°01' E 001°17'0 0.1
2018-Jan-23 01:30N 06°01' E 001°17'0 0.0
2018-Jan-23 01:00N 06°01' E 001°17'0 0.1
2018-Jan-23 00:18N 06°01' E 001°17'0 0.0
2018-Jan-23 00:00N 06°01' E 001°17'0 0.0
2018-Jan-22 23:30N 06°01' E 001°17'0 0.0
2018-Jan-22 23:00N 06°01' E 001°17'0 0.0
2018-Jan-22 22:30N 06°01' E 001°17'0 0.0
2018-Jan-22 22:00N 06°01' E 001°17'0 0.0
2018-Jan-22 21:30N 06°01' E 001°17'0 0.0
2018-Jan-22 21:00N 06°01' E 001°17'0 0.0
2018-Jan-22 20:30N 06°01' E 001°17'0 0.1
2018-Jan-22 20:00N 06°01' E 001°17'0 0.0
2018-Jan-22 19:24N 06°01' E 001°17'0 0.0
2018-Jan-22 19:00N 06°01' E 001°17'0 0.0
2018-Jan-22 18:30N 06°01' E 001°17'0 0.0
2018-Jan-22 18:00N 06°01' E 001°17'0 0.0
2018-Jan-22 17:30N 06°01' E 001°17'0 0.0
2018-Jan-22 17:00N 06°01' E 001°17'0 0.0
2018-Jan-22 16:30N 06°01' E 001°17'0 0.0
2018-Jan-22 16:00N 06°01' E 001°17'0 0.0
2018-Jan-22 05:27N 06°01' E 001°17'0 0.0
2018-Jan-22 04:08N 06°01' E 001°17'0 0.0
2018-Jan-22 03:59N 06°01' E 001°17'0 0.0
2018-Jan-22 03:29N 06°01' E 001°17'0 0.0
2018-Jan-22 02:59N 06°01' E 001°17'0 0.0
2018-Jan-22 02:26N 06°01' E 001°17'0 0.0
2018-Jan-22 01:56N 06°01' E 001°17'0 0.0
2018-Jan-22 01:29N 06°01' E 001°17'0 0.0
2018-Jan-22 00:59N 06°01' E 001°17'0 0.0
2018-Jan-22 00:26N 06°01' E 001°17'0 0.0
2018-Jan-21 23:59N 06°01' E 001°17'0 0.0
2018-Jan-21 23:29N 06°01' E 001°17'0 0.0
2018-Jan-21 22:59N 06°01' E 001°17'0 0.0
2018-Jan-21 22:29N 06°01' E 001°17'0 0.0
2018-Jan-21 21:59N 06°01' E 001°17'0 0.0
2018-Jan-21 21:29N 06°01' E 001°17'0 0.0
2018-Jan-21 20:59N 06°01' E 001°17'0 0.0
2018-Jan-21 20:29N 06°01' E 001°17'0 0.0
2018-Jan-21 19:59N 06°01' E 001°17'0 0.0
2018-Jan-21 19:29N 06°01' E 001°17'0 0.0
2018-Jan-21 18:59N 06°01' E 001°17'0 0.0
2018-Jan-21 18:29N 06°01' E 001°17'0 0.0
2018-Jan-21 17:59N 06°01' E 001°17'0 0.0
2018-Jan-21 17:29N 06°01' E 001°17'0 0.0
2018-Jan-21 16:59N 06°01' E 001°17'0 0.0
2018-Jan-21 16:29N 06°01' E 001°17'0 0.0
2018-Jan-21 15:56N 06°01' E 001°17'0 0.0
2018-Jan-21 15:29N 06°01' E 001°17'0 0.0
2018-Jan-21 07:26N 06°01' E 001°17'0 0.0
2018-Jan-21 05:14N 06°01' E 001°17'0 0.0
2018-Jan-21 03:35N 06°01' E 001°17'0 0.0
2018-Jan-21 03:29N 06°01' E 001°17'0 0.0
2018-Jan-21 02:59N 06°01' E 001°17'0 0.0
2018-Jan-21 02:17N 06°01' E 001°17'0 0.0
2018-Jan-21 01:59N 06°01' E 001°17'0 0.0
2018-Jan-21 01:26N 06°01' E 001°17'0 0.0
2018-Jan-21 00:50N 06°01' E 001°17'0 0.0
2018-Jan-21 00:26N 06°01' E 001°17'0 0.0
2018-Jan-20 23:59N 06°01' E 001°17'0 0.0
2018-Jan-20 23:26N 06°01' E 001°17'0 0.0
2018-Jan-20 22:59N 06°01' E 001°17'0 0.0
2018-Jan-20 22:29N 06°01' E 001°17'0 0.0
2018-Jan-20 21:59N 06°01' E 001°17'0 0.0
2018-Jan-20 21:23N 06°01' E 001°17'0 0.0
2018-Jan-20 20:53N 06°01' E 001°17'0 0.0
2018-Jan-20 19:47N 06°01' E 001°17'0 0.0
2018-Jan-20 19:23N 06°01' E 001°17'0 0.0
2018-Jan-20 18:59N 06°01' E 001°17'0 0.0
2018-Jan-20 18:29N 06°01' E 001°17'0 0.0
2018-Jan-20 17:59N 06°01' E 001°17'0 0.0
2018-Jan-20 17:28N 06°01' E 001°17'0 0.0
2018-Jan-20 16:58N 06°01' E 001°17'0 0.0
2018-Jan-20 16:01N 06°01' E 001°17'0 0.1
2018-Jan-20 15:58N 06°01' E 001°17'0 0.0
2018-Jan-20 15:28N 06°01' E 001°17'0 0.0
2018-Jan-20 14:58N 06°01' E 001°17'0 0.0
2018-Jan-20 14:28N 06°01' E 001°17'0 0.0
2018-Jan-20 01:01N 06°01' E 001°17'0 0.0
2018-Jan-20 00:34N 06°01' E 001°17'0 0.0
2018-Jan-20 00:16N 06°01' E 001°17'0 0.0
2018-Jan-19 23:55N 06°01' E 001°17'0 0.0
2018-Jan-19 23:28N 06°01' E 001°17'0 0.0
2018-Jan-19 22:58N 06°01' E 001°17'0 0.0
2018-Jan-19 22:28N 06°01' E 001°17'0 0.0
2018-Jan-19 21:58N 06°01' E 001°17'0 0.0
2018-Jan-19 21:28N 06°01' E 001°17'0 0.0
2018-Jan-19 20:58N 06°01' E 001°17'0 0.0
2018-Jan-19 20:28N 06°01' E 001°17'0 0.0
2018-Jan-19 19:58N 06°01' E 001°17'0 0.0
2018-Jan-19 19:28N 06°01' E 001°17'0 0.0
2018-Jan-19 18:58N 06°01' E 001°17'0 0.0
2018-Jan-19 18:28N 06°01' E 001°17'0 0.0
2018-Jan-19 17:58N 06°01' E 001°17'0 0.0
2018-Jan-19 17:28N 06°01' E 001°17'0 0.0
2018-Jan-19 16:58N 06°01' E 001°17'0 0.0
2018-Jan-19 16:28N 06°01' E 001°17'0 0.0
2018-Jan-19 15:52N 06°01' E 001°17'0 0.0
2018-Jan-19 15:25N 06°01' E 001°17'0 0.0
2018-Jan-19 14:58N 06°01' E 001°17'0 0.0
2018-Jan-19 14:28N 06°01' E 001°17'0 0.0
2018-Jan-19 13:58N 06°01' E 001°17'  

Dump ship's entire track history